BRQ weather

Brno-Tuřany Airport
Brno, South Moravian Region, Czech Republic

Public forecast

Using degrees Celsius for public forecast. Weather courtesy of forecast.io.

Current aviation weather report (METAR) for Brno-Tuřany Airport

Retrieved 2019/12/07 03:30 UTC (5 minutes ago):

LKTB 070330Z 19009KT 1500 BR OVC002 M01/M02 Q1015 NOSIG

Aviation forecast (TAF) for Brno-Tuřany Airport

Retrieved 2019-12-07 00:24 UTC (3 hours ago):

TAF LKTB 062300Z 0700/0806 18008KT 4000 BR OVC004 TEMPO 0700/0707 1200 BR BKN001 TEMPO 0707/0710 22010KT 3000 -FZRA BR BKN010 BECMG 0710/0712 26010KT 9000 BKN025 PROB40 TEMPO 0720/0806 3000 BR BKN007